Nitra, Slovensko

09:45 AM CEST dna 04 September, 2015 (GMT +0200)
Beladice | | Change Station
CLOSE
Current Station
Personal Weather Stations
Location: Beladice, NITRIANSKY KRAJ
Nad. výška:: 564 ft
Najbližšie meteo stanice

Elev 564 ft 48.34 °N, 18.31 °E | Updated 45 seconds ago

Mostly Cloudy
Prevažne zamračené
72.3 °F
Feels Like 75 °F
N
0.0
Vietor meniaci sa Vietor from Severný
Gusts 0.0 mph

Dnes
High -- | Low -- °F
--% Chance of Precip.
Yesterday
High -- | Low -- °F
Precip. -- in
6:08 AM 7:23 PM
Ubúdajúci mesiac, 3. fáza, 62% visible
Tlak 29.98 in
Viditeľnosť 6.2 mile
Oblačnost Ojedinelé mraky 1600 ft
Prevažne zamračené 8000 ft
Teplotný index 75 °F
Rosný bod 60 °F
Vlhkosť 66%
Rainfall 0.00 in
Výška snehu Not available.
UV 0.0 out of 12
Pollen Not available.
Air Quality Not available.
Flu Activity Not available.
METAR LZIB 040730Z 31010KT 270V340 9999 SCT016 BKN080 17/13 Q1015 NOSIG
Tlak 29.98 in
Viditeľnosť 6.2 mile
Oblačnost Ojedinelé mraky 1600 ft
Prevažne zamračené 8000 ft
Teplotný index 75 °F
Rosný bod 60 °F
Vlhkosť 66%
Rainfall 0.00 in
Výška snehu Not available.
UV 0.0 out of 12
Pollen Not available.
Air Quality Not available.
Flu Activity Not available.
METAR LZIB 040730Z 31010KT 270V340 9999 SCT016 BKN080 17/13 Q1015 NOSIG

10-Day Weather Forecast

×

Almanac

Astronómia

Sep. 04, 2015 Východ Západ
Aktuálny čas
Civil Twilight
Nautical Twilight
Astronomical Twilight
Mesiac
Length Of Visible Light
Dĺžka dňa
Tomorrow will be .
, % of the Moon is Illuminated

Today's Extremes

Country Highs Country Lows

Community

WunderPhotos

Upload Photos

1,852,132 photos uploaded!

WunderBlogs® & News

Nearby

Air Quality

  Air Quality AQ Index Pollutant
Not available.

Výska snehu

Station Depth Nad. výška:

Aktivita zemetrasenia

Mesto Distance Mag. Time & Date
Minimum magnitude displayed is 2.5.

Coastal Water Temperatures

Miesto Teplota

Stations

Najbližšie meteo stanice

Station Location Temp Pocitová teplota Rosný bod Vlhkosť Vietor Precip. Elev Cas aktualizacie Type